Terminal Aerodrome Forecast
Issued by NWS

Home | Current Version | Previous Version | Text Only | Print | Product List | Glossary On
Versions: 1 2 3 4 5 6 7 8 9 10 11 12
000
FTUS43 KDLH 240500
TAFBRD
TAF
KBRD 240538Z 2406/2506 35006KT 6SM BR OVC012
      TEMPO 2409/2413 3SM BR OVC004
     FM242300 VRB03KT 6SM BR OVC008=

USA.gov is the U.S. government's official web portal to all federal, state and local government web resources and services.